sensor_id;sensor_type;location;lat;lon;timestamp;temperature;humidity
13591;DHT22;6866;50.778;7.206;2023-08-21T00:00:50;22.00;99.90
13591;DHT22;6866;50.778;7.206;2023-08-21T00:03:16;22.00;99.90
13591;DHT22;6866;50.778;7.206;2023-08-21T00:05:41;22.00;99.90
13591;DHT22;6866;50.778;7.206;2023-08-21T00:08:07;22.00;99.90
13591;DHT22;6866;50.778;7.206;2023-08-21T00:10:33;22.00;99.90
13591;DHT22;6866;50.778;7.206;2023-08-21T00:12:58;22.00;99.90
13591;DHT22;6866;50.778;7.206;2023-08-21T00:15:24;21.90;99.90
13591;DHT22;6866;50.778;7.206;2023-08-21T00:17:49;21.90;99.90
13591;DHT22;6866;50.778;7.206;2023-08-21T00:20:15;21.80;99.90
13591;DHT22;6866;50.778;7.206;2023-08-21T00:22:41;21.70;99.90
13591;DHT22;6866;50.778;7.206;2023-08-21T00:25:06;21.60;99.90
13591;DHT22;6866;50.778;7.206;2023-08-21T00:27:32;21.60;99.90
13591;DHT22;6866;50.778;7.206;2023-08-21T00:29:59;21.70;99.90
13591;DHT22;6866;50.778;7.206;2023-08-21T00:32:25;21.70;99.90
13591;DHT22;6866;50.778;7.206;2023-08-21T00:34:51;21.70;99.90
13591;DHT22;6866;50.778;7.206;2023-08-21T00:37:16;21.70;99.90
13591;DHT22;6866;50.778;7.206;2023-08-21T00:39:42;21.60;99.90
13591;DHT22;6866;50.778;7.206;2023-08-21T00:42:08;21.50;99.90
13591;DHT22;6866;50.778;7.206;2023-08-21T00:44:33;21.50;99.90
13591;DHT22;6866;50.778;7.206;2023-08-21T00:46:59;21.50;99.90
13591;DHT22;6866;50.778;7.206;2023-08-21T00:49:25;21.50;99.90
13591;DHT22;6866;50.778;7.206;2023-08-21T00:51:51;21.50;99.90
13591;DHT22;6866;50.778;7.206;2023-08-21T00:54:17;21.40;99.90
13591;DHT22;6866;50.778;7.206;2023-08-21T00:56:42;21.50;99.90
13591;DHT22;6866;50.778;7.206;2023-08-21T00:59:08;21.60;99.90
13591;DHT22;6866;50.778;7.206;2023-08-21T01:04:10;21.30;99.90
13591;DHT22;6866;50.778;7.206;2023-08-21T01:06:36;21.20;99.90
13591;DHT22;6866;50.778;7.206;2023-08-21T01:09:26;21.10;99.90
13591;DHT22;6866;50.778;7.206;2023-08-21T01:15:07;21.00;99.90
13591;DHT22;6866;50.778;7.206;2023-08-21T01:17:37;21.00;99.90
13591;DHT22;6866;50.778;7.206;2023-08-21T01:20:04;21.10;99.90
13591;DHT22;6866;50.778;7.206;2023-08-21T01:22:39;21.10;99.90
13591;DHT22;6866;50.778;7.206;2023-08-21T01:25:05;21.10;99.90
13591;DHT22;6866;50.778;7.206;2023-08-21T01:27:32;21.20;99.90
13591;DHT22;6866;50.778;7.206;2023-08-21T01:30:00;21.20;99.90
13591;DHT22;6866;50.778;7.206;2023-08-21T01:32:37;21.20;99.90
13591;DHT22;6866;50.778;7.206;2023-08-21T01:35:06;21.00;99.90
13591;DHT22;6866;50.778;7.206;2023-08-21T01:37:32;20.90;99.90
13591;DHT22;6866;50.778;7.206;2023-08-21T01:39:58;20.90;99.90
13591;DHT22;6866;50.778;7.206;2023-08-21T01:42:24;20.80;99.90
13591;DHT22;6866;50.778;7.206;2023-08-21T01:44:49;20.80;99.90
13591;DHT22;6866;50.778;7.206;2023-08-21T01:47:15;20.90;99.90
13591;DHT22;6866;50.778;7.206;2023-08-21T01:49:40;21.00;99.90
13591;DHT22;6866;50.778;7.206;2023-08-21T01:52:06;21.00;99.90
13591;DHT22;6866;50.778;7.206;2023-08-21T01:54:31;20.80;99.90
13591;DHT22;6866;50.778;7.206;2023-08-21T01:56:57;20.80;99.90
13591;DHT22;6866;50.778;7.206;2023-08-21T01:59:24;20.90;99.90
13591;DHT22;6866;50.778;7.206;2023-08-21T02:01:49;21.00;99.90
13591;DHT22;6866;50.778;7.206;2023-08-21T02:04:15;21.00;99.90
13591;DHT22;6866;50.778;7.206;2023-08-21T02:06:41;21.00;99.90
13591;DHT22;6866;50.778;7.206;2023-08-21T02:09:06;20.90;99.90
13591;DHT22;6866;50.778;7.206;2023-08-21T02:11:32;21.00;99.90
13591;DHT22;6866;50.778;7.206;2023-08-21T02:13:57;20.90;99.90
13591;DHT22;6866;50.778;7.206;2023-08-21T02:16:23;20.90;99.90
13591;DHT22;6866;50.778;7.206;2023-08-21T02:18:48;20.90;99.90
13591;DHT22;6866;50.778;7.206;2023-08-21T02:21:14;20.90;99.90
13591;DHT22;6866;50.778;7.206;2023-08-21T02:23:40;20.90;99.90
13591;DHT22;6866;50.778;7.206;2023-08-21T02:26:05;20.90;99.90
13591;DHT22;6866;50.778;7.206;2023-08-21T02:28:31;20.80;99.90
13591;DHT22;6866;50.778;7.206;2023-08-21T02:30:56;20.80;99.90
13591;DHT22;6866;50.778;7.206;2023-08-21T02:33:22;20.80;99.90
13591;DHT22;6866;50.778;7.206;2023-08-21T02:35:47;20.80;99.90
13591;DHT22;6866;50.778;7.206;2023-08-21T02:38:13;20.80;99.90
13591;DHT22;6866;50.778;7.206;2023-08-21T02:40:38;20.90;99.90
13591;DHT22;6866;50.778;7.206;2023-08-21T02:43:04;20.90;99.90
13591;DHT22;6866;50.778;7.206;2023-08-21T02:45:30;20.90;99.90
13591;DHT22;6866;50.778;7.206;2023-08-21T02:47:56;20.90;99.90
13591;DHT22;6866;50.778;7.206;2023-08-21T02:50:21;20.80;99.90
13591;DHT22;6866;50.778;7.206;2023-08-21T02:52:47;20.70;99.90
13591;DHT22;6866;50.778;7.206;2023-08-21T02:55:13;20.70;99.90
13591;DHT22;6866;50.778;7.206;2023-08-21T02:57:39;20.60;99.90
13591;DHT22;6866;50.778;7.206;2023-08-21T03:00:05;20.60;99.90
13591;DHT22;6866;50.778;7.206;2023-08-21T03:02:33;20.60;99.90
13591;DHT22;6866;50.778;7.206;2023-08-21T03:04:58;20.60;99.90
13591;DHT22;6866;50.778;7.206;2023-08-21T03:07:24;20.60;99.90
13591;DHT22;6866;50.778;7.206;2023-08-21T03:09:50;20.50;99.90
13591;DHT22;6866;50.778;7.206;2023-08-21T03:12:16;20.50;99.90
13591;DHT22;6866;50.778;7.206;2023-08-21T03:14:41;20.60;99.90
13591;DHT22;6866;50.778;7.206;2023-08-21T03:17:07;20.60;99.90
13591;DHT22;6866;50.778;7.206;2023-08-21T03:19:32;20.60;99.90
13591;DHT22;6866;50.778;7.206;2023-08-21T03:21:58;20.60;99.90
13591;DHT22;6866;50.778;7.206;2023-08-21T03:24:23;20.60;99.90
13591;DHT22;6866;50.778;7.206;2023-08-21T03:26:49;20.60;99.90
13591;DHT22;6866;50.778;7.206;2023-08-21T03:29:14;20.50;99.90
13591;DHT22;6866;50.778;7.206;2023-08-21T03:31:40;20.50;99.90
13591;DHT22;6866;50.778;7.206;2023-08-21T03:34:05;20.40;99.90
13591;DHT22;6866;50.778;7.206;2023-08-21T03:36:31;20.40;99.90
13591;DHT22;6866;50.778;7.206;2023-08-21T03:39:06;20.50;99.90
13591;DHT22;6866;50.778;7.206;2023-08-21T03:41:31;20.50;99.90
13591;DHT22;6866;50.778;7.206;2023-08-21T03:43:57;20.40;99.90
13591;DHT22;6866;50.778;7.206;2023-08-21T03:46:24;20.30;99.90
13591;DHT22;6866;50.778;7.206;2023-08-21T03:48:51;20.40;99.90
13591;DHT22;6866;50.778;7.206;2023-08-21T03:51:17;20.30;99.90
13591;DHT22;6866;50.778;7.206;2023-08-21T03:53:42;20.40;99.90
13591;DHT22;6866;50.778;7.206;2023-08-21T03:56:08;20.40;99.90
13591;DHT22;6866;50.778;7.206;2023-08-21T03:58:33;20.40;99.90
13591;DHT22;6866;50.778;7.206;2023-08-21T04:00:59;20.40;99.90
13591;DHT22;6866;50.778;7.206;2023-08-21T04:03:24;20.40;99.90
13591;DHT22;6866;50.778;7.206;2023-08-21T04:05:53;20.40;99.90
13591;DHT22;6866;50.778;7.206;2023-08-21T04:08:19;20.40;99.90
13591;DHT22;6866;50.778;7.206;2023-08-21T04:10:44;20.40;99.90
13591;DHT22;6866;50.778;7.206;2023-08-21T04:13:10;20.30;99.90
13591;DHT22;6866;50.778;7.206;2023-08-21T04:15:35;20.30;99.90
13591;DHT22;6866;50.778;7.206;2023-08-21T04:18:01;20.30;99.90
13591;DHT22;6866;50.778;7.206;2023-08-21T04:20:26;20.10;99.90
13591;DHT22;6866;50.778;7.206;2023-08-21T04:22:52;19.90;99.90
13591;DHT22;6866;50.778;7.206;2023-08-21T04:25:17;20.00;99.90
13591;DHT22;6866;50.778;7.206;2023-08-21T04:27:43;20.00;99.90
13591;DHT22;6866;50.778;7.206;2023-08-21T04:30:10;20.00;99.90
13591;DHT22;6866;50.778;7.206;2023-08-21T04:32:36;20.00;99.90
13591;DHT22;6866;50.778;7.206;2023-08-21T04:35:01;20.00;99.90
13591;DHT22;6866;50.778;7.206;2023-08-21T04:37:27;19.80;99.90
13591;DHT22;6866;50.778;7.206;2023-08-21T04:39:53;19.80;99.90
13591;DHT22;6866;50.778;7.206;2023-08-21T04:42:20;19.90;99.90
13591;DHT22;6866;50.778;7.206;2023-08-21T04:44:45;20.00;99.90
13591;DHT22;6866;50.778;7.206;2023-08-21T04:47:22;20.10;99.90
13591;DHT22;6866;50.778;7.206;2023-08-21T04:49:51;20.00;99.90
13591;DHT22;6866;50.778;7.206;2023-08-21T04:52:18;19.90;99.90
13591;DHT22;6866;50.778;7.206;2023-08-21T04:54:44;20.00;99.90
13591;DHT22;6866;50.778;7.206;2023-08-21T04:57:09;20.10;99.90
13591;DHT22;6866;50.778;7.206;2023-08-21T04:59:35;20.20;99.90
13591;DHT22;6866;50.778;7.206;2023-08-21T05:02:02;20.20;99.90
13591;DHT22;6866;50.778;7.206;2023-08-21T05:04:27;20.30;99.90
13591;DHT22;6866;50.778;7.206;2023-08-21T05:06:53;20.40;99.90
13591;DHT22;6866;50.778;7.206;2023-08-21T05:09:18;20.40;99.90
13591;DHT22;6866;50.778;7.206;2023-08-21T05:11:44;20.50;99.90
13591;DHT22;6866;50.778;7.206;2023-08-21T05:14:10;20.60;99.90
13591;DHT22;6866;50.778;7.206;2023-08-21T05:16:36;20.80;99.90
13591;DHT22;6866;50.778;7.206;2023-08-21T05:19:02;20.80;99.90
13591;DHT22;6866;50.778;7.206;2023-08-21T05:21:27;20.70;99.90
13591;DHT22;6866;50.778;7.206;2023-08-21T05:23:53;20.60;99.90
13591;DHT22;6866;50.778;7.206;2023-08-21T05:26:19;20.70;99.90
13591;DHT22;6866;50.778;7.206;2023-08-21T05:28:45;20.80;99.90
13591;DHT22;6866;50.778;7.206;2023-08-21T05:31:10;20.80;99.90
13591;DHT22;6866;50.778;7.206;2023-08-21T05:33:36;20.80;99.90
13591;DHT22;6866;50.778;7.206;2023-08-21T05:36:01;20.90;99.90
13591;DHT22;6866;50.778;7.206;2023-08-21T05:38:27;21.00;99.90
13591;DHT22;6866;50.778;7.206;2023-08-21T05:40:52;21.20;99.90
13591;DHT22;6866;50.778;7.206;2023-08-21T05:43:18;21.30;99.90
13591;DHT22;6866;50.778;7.206;2023-08-21T05:45:44;21.40;99.90
13591;DHT22;6866;50.778;7.206;2023-08-21T05:48:09;21.50;99.90
13591;DHT22;6866;50.778;7.206;2023-08-21T05:50:36;21.60;99.90
13591;DHT22;6866;50.778;7.206;2023-08-21T05:53:05;21.70;99.90
13591;DHT22;6866;50.778;7.206;2023-08-21T05:55:31;21.80;99.90
13591;DHT22;6866;50.778;7.206;2023-08-21T05:57:57;21.90;99.90
13591;DHT22;6866;50.778;7.206;2023-08-21T06:00:22;22.10;99.90
13591;DHT22;6866;50.778;7.206;2023-08-21T06:02:48;22.10;99.90
13591;DHT22;6866;50.778;7.206;2023-08-21T06:05:13;22.00;99.90
13591;DHT22;6866;50.778;7.206;2023-08-21T06:07:39;22.30;99.90
13591;DHT22;6866;50.778;7.206;2023-08-21T06:10:09;22.50;99.90
13591;DHT22;6866;50.778;7.206;2023-08-21T06:12:37;22.60;99.90
13591;DHT22;6866;50.778;7.206;2023-08-21T06:15:02;25.20;99.90
13591;DHT22;6866;50.778;7.206;2023-08-21T06:17:28;26.40;99.90
13591;DHT22;6866;50.778;7.206;2023-08-21T06:19:53;27.80;93.80
13591;DHT22;6866;50.778;7.206;2023-08-21T06:22:19;28.90;87.30
13591;DHT22;6866;50.778;7.206;2023-08-21T06:24:44;29.00;90.00
13591;DHT22;6866;50.778;7.206;2023-08-21T06:27:10;27.70;85.30
13591;DHT22;6866;50.778;7.206;2023-08-21T06:29:36;27.00;92.80
13591;DHT22;6866;50.778;7.206;2023-08-21T06:32:03;26.70;91.50
13591;DHT22;6866;50.778;7.206;2023-08-21T06:34:28;26.30;93.70
13591;DHT22;6866;50.778;7.206;2023-08-21T06:36:54;25.60;96.50
13591;DHT22;6866;50.778;7.206;2023-08-21T06:39:19;26.10;94.90
13591;DHT22;6866;50.778;7.206;2023-08-21T06:41:45;26.70;94.50
13591;DHT22;6866;50.778;7.206;2023-08-21T06:44:10;26.60;93.60
13591;DHT22;6866;50.778;7.206;2023-08-21T06:46:36;29.40;88.10
13591;DHT22;6866;50.778;7.206;2023-08-21T06:49:02;30.40;81.30
13591;DHT22;6866;50.778;7.206;2023-08-21T06:51:27;30.20;76.10
13591;DHT22;6866;50.778;7.206;2023-08-21T06:53:53;28.80;79.10
13591;DHT22;6866;50.778;7.206;2023-08-21T06:56:18;29.50;76.50
13591;DHT22;6866;50.778;7.206;2023-08-21T06:58:44;30.40;76.30
13591;DHT22;6866;50.778;7.206;2023-08-21T07:01:09;31.30;72.90
13591;DHT22;6866;50.778;7.206;2023-08-21T07:03:35;32.30;68.60
13591;DHT22;6866;50.778;7.206;2023-08-21T07:06:00;31.20;68.50
13591;DHT22;6866;50.778;7.206;2023-08-21T07:08:26;32.50;66.50
13591;DHT22;6866;50.778;7.206;2023-08-21T07:10:52;33.00;65.10
13591;DHT22;6866;50.778;7.206;2023-08-21T07:13:17;33.00;63.00
13591;DHT22;6866;50.778;7.206;2023-08-21T07:15:43;33.90;60.90
13591;DHT22;6866;50.778;7.206;2023-08-21T07:18:08;32.90;61.00
13591;DHT22;6866;50.778;7.206;2023-08-21T07:20:34;33.50;61.20
13591;DHT22;6866;50.778;7.206;2023-08-21T07:23:00;34.40;59.00
13591;DHT22;6866;50.778;7.206;2023-08-21T07:25:26;34.60;57.40
13591;DHT22;6866;50.778;7.206;2023-08-21T07:27:52;35.40;55.30
13591;DHT22;6866;50.778;7.206;2023-08-21T07:30:21;35.50;54.40
13591;DHT22;6866;50.778;7.206;2023-08-21T07:32:48;35.10;54.60
13591;DHT22;6866;50.778;7.206;2023-08-21T07:35:14;33.40;55.00
13591;DHT22;6866;50.778;7.206;2023-08-21T07:37:43;34.10;57.10
13591;DHT22;6866;50.778;7.206;2023-08-21T07:40:08;34.50;56.00
13591;DHT22;6866;50.778;7.206;2023-08-21T07:42:34;34.60;55.30
13591;DHT22;6866;50.778;7.206;2023-08-21T07:44:59;35.20;55.40
13591;DHT22;6866;50.778;7.206;2023-08-21T07:47:27;35.00;54.10
13591;DHT22;6866;50.778;7.206;2023-08-21T07:49:52;35.20;53.80
13591;DHT22;6866;50.778;7.206;2023-08-21T07:52:18;34.70;53.30
13591;DHT22;6866;50.778;7.206;2023-08-21T07:54:43;35.30;53.50
13591;DHT22;6866;50.778;7.206;2023-08-21T07:57:09;35.00;52.50
13591;DHT22;6866;50.778;7.206;2023-08-21T07:59:34;35.60;53.40
13591;DHT22;6866;50.778;7.206;2023-08-21T08:02:01;35.30;52.90
13591;DHT22;6866;50.778;7.206;2023-08-21T08:04:28;35.20;52.90
13591;DHT22;6866;50.778;7.206;2023-08-21T08:06:53;35.20;53.60
13591;DHT22;6866;50.778;7.206;2023-08-21T08:09:19;35.70;52.50
13591;DHT22;6866;50.778;7.206;2023-08-21T08:11:44;35.40;51.40
13591;DHT22;6866;50.778;7.206;2023-08-21T08:14:10;35.00;52.70
13591;DHT22;6866;50.778;7.206;2023-08-21T08:16:35;35.30;51.80
13591;DHT22;6866;50.778;7.206;2023-08-21T08:19:01;35.30;52.00
13591;DHT22;6866;50.778;7.206;2023-08-21T08:21:27;35.60;51.90
13591;DHT22;6866;50.778;7.206;2023-08-21T08:23:52;35.30;51.70
13591;DHT22;6866;50.778;7.206;2023-08-21T08:26:17;35.20;52.50
13591;DHT22;6866;50.778;7.206;2023-08-21T08:28:43;35.30;51.70
13591;DHT22;6866;50.778;7.206;2023-08-21T08:31:16;35.20;51.40
13591;DHT22;6866;50.778;7.206;2023-08-21T08:33:41;35.40;51.50
13591;DHT22;6866;50.778;7.206;2023-08-21T08:36:07;35.20;50.30
13591;DHT22;6866;50.778;7.206;2023-08-21T08:38:33;35.00;51.80
13591;DHT22;6866;50.778;7.206;2023-08-21T08:40:58;35.20;51.40
13591;DHT22;6866;50.778;7.206;2023-08-21T08:43:25;34.70;51.50
13591;DHT22;6866;50.778;7.206;2023-08-21T08:45:52;34.80;50.90
13591;DHT22;6866;50.778;7.206;2023-08-21T08:48:19;34.00;51.70
13591;DHT22;6866;50.778;7.206;2023-08-21T08:50:45;34.70;51.60
13591;DHT22;6866;50.778;7.206;2023-08-21T08:53:11;35.00;50.50
13591;DHT22;6866;50.778;7.206;2023-08-21T08:55:37;35.10;50.50
13591;DHT22;6866;50.778;7.206;2023-08-21T08:58:03;35.40;49.60
13591;DHT22;6866;50.778;7.206;2023-08-21T09:00:28;35.60;50.20
13591;DHT22;6866;50.778;7.206;2023-08-21T09:02:54;35.30;49.70
13591;DHT22;6866;50.778;7.206;2023-08-21T09:05:20;35.50;49.60
13591;DHT22;6866;50.778;7.206;2023-08-21T09:07:46;35.30;50.20
13591;DHT22;6866;50.778;7.206;2023-08-21T09:10:26;35.00;50.50
13591;DHT22;6866;50.778;7.206;2023-08-21T09:12:52;35.20;50.70
13591;DHT22;6866;50.778;7.206;2023-08-21T09:15:18;35.20;49.90
13591;DHT22;6866;50.778;7.206;2023-08-21T09:17:45;35.20;50.20
13591;DHT22;6866;50.778;7.206;2023-08-21T09:20:18;35.20;51.00
13591;DHT22;6866;50.778;7.206;2023-08-21T09:22:46;34.90;50.60
13591;DHT22;6866;50.778;7.206;2023-08-21T09:25:17;34.90;50.60
13591;DHT22;6866;50.778;7.206;2023-08-21T09:27:43;34.70;51.40
13591;DHT22;6866;50.778;7.206;2023-08-21T09:30:09;34.50;51.40
13591;DHT22;6866;50.778;7.206;2023-08-21T09:35:20;34.40;53.30
13591;DHT22;6866;50.778;7.206;2023-08-21T09:37:49;33.60;53.20
13591;DHT22;6866;50.778;7.206;2023-08-21T09:40:15;33.70;53.20
13591;DHT22;6866;50.778;7.206;2023-08-21T09:42:41;33.80;52.30
13591;DHT22;6866;50.778;7.206;2023-08-21T09:45:07;33.90;51.70
13591;DHT22;6866;50.778;7.206;2023-08-21T09:47:33;33.80;52.70
13591;DHT22;6866;50.778;7.206;2023-08-21T09:49:59;33.40;53.00
13591;DHT22;6866;50.778;7.206;2023-08-21T09:52:26;33.40;53.80
13591;DHT22;6866;50.778;7.206;2023-08-21T09:54:56;33.40;53.10
13591;DHT22;6866;50.778;7.206;2023-08-21T09:57:23;33.50;52.70
13591;DHT22;6866;50.778;7.206;2023-08-21T09:59:53;33.40;53.40
13591;DHT22;6866;50.778;7.206;2023-08-21T10:02:20;33.10;54.40
13591;DHT22;6866;50.778;7.206;2023-08-21T10:04:48;33.10;55.00
13591;DHT22;6866;50.778;7.206;2023-08-21T10:07:16;33.50;54.00
13591;DHT22;6866;50.778;7.206;2023-08-21T10:09:42;33.40;52.60
13591;DHT22;6866;50.778;7.206;2023-08-21T10:12:09;33.30;53.60
13591;DHT22;6866;50.778;7.206;2023-08-21T10:14:36;33.20;54.00
13591;DHT22;6866;50.778;7.206;2023-08-21T10:17:02;33.00;53.50
13591;DHT22;6866;50.778;7.206;2023-08-21T10:19:31;32.90;55.20
13591;DHT22;6866;50.778;7.206;2023-08-21T10:21:57;33.10;54.10
13591;DHT22;6866;50.778;7.206;2023-08-21T10:24:32;32.90;54.40
13591;DHT22;6866;50.778;7.206;2023-08-21T10:26:59;32.90;55.30
13591;DHT22;6866;50.778;7.206;2023-08-21T10:29:25;32.70;54.80
13591;DHT22;6866;50.778;7.206;2023-08-21T10:32:02;32.50;55.10
13591;DHT22;6866;50.778;7.206;2023-08-21T10:34:35;32.70;56.40
13591;DHT22;6866;50.778;7.206;2023-08-21T10:37:04;32.40;56.20
13591;DHT22;6866;50.778;7.206;2023-08-21T10:39:32;33.00;55.80
13591;DHT22;6866;50.778;7.206;2023-08-21T10:47:20;32.50;55.40
13591;DHT22;6866;50.778;7.206;2023-08-21T10:49:49;32.20;56.90
13591;DHT22;6866;50.778;7.206;2023-08-21T10:52:20;32.50;56.70
13591;DHT22;6866;50.778;7.206;2023-08-21T10:54:48;32.90;56.30
13591;DHT22;6866;50.778;7.206;2023-08-21T10:57:14;32.40;57.30
13591;DHT22;6866;50.778;7.206;2023-08-21T10:59:55;32.80;56.20
13591;DHT22;6866;50.778;7.206;2023-08-21T11:02:23;32.60;56.30
13591;DHT22;6866;50.778;7.206;2023-08-21T11:04:50;32.90;55.80
13591;DHT22;6866;50.778;7.206;2023-08-21T11:07:15;32.90;55.60
13591;DHT22;6866;50.778;7.206;2023-08-21T11:09:41;32.90;55.10
13591;DHT22;6866;50.778;7.206;2023-08-21T11:12:08;32.20;56.30
13591;DHT22;6866;50.778;7.206;2023-08-21T11:14:34;31.70;56.70
13591;DHT22;6866;50.778;7.206;2023-08-21T11:17:00;32.30;57.60
13591;DHT22;6866;50.778;7.206;2023-08-21T11:19:26;32.50;56.50
13591;DHT22;6866;50.778;7.206;2023-08-21T11:21:51;32.00;56.20
13591;DHT22;6866;50.778;7.206;2023-08-21T11:24:17;31.80;57.10
13591;DHT22;6866;50.778;7.206;2023-08-21T11:26:43;31.70;57.30
13591;DHT22;6866;50.778;7.206;2023-08-21T11:29:08;32.10;56.60
13591;DHT22;6866;50.778;7.206;2023-08-21T11:31:34;32.50;55.60
13591;DHT22;6866;50.778;7.206;2023-08-21T11:34:00;32.50;55.30
13591;DHT22;6866;50.778;7.206;2023-08-21T11:36:25;32.50;56.40
13591;DHT22;6866;50.778;7.206;2023-08-21T11:39:01;32.40;56.10
13591;DHT22;6866;50.778;7.206;2023-08-21T11:41:28;32.30;56.10
13591;DHT22;6866;50.778;7.206;2023-08-21T11:44:02;32.30;56.10
13591;DHT22;6866;50.778;7.206;2023-08-21T11:46:28;32.40;56.20
13591;DHT22;6866;50.778;7.206;2023-08-21T11:48:54;32.50;56.10
13591;DHT22;6866;50.778;7.206;2023-08-21T11:51:19;32.40;54.50
13591;DHT22;6866;50.778;7.206;2023-08-21T11:53:47;32.30;56.40
13591;DHT22;6866;50.778;7.206;2023-08-21T11:56:16;32.10;56.60
13591;DHT22;6866;50.778;7.206;2023-08-21T11:58:44;32.20;56.80
13591;DHT22;6866;50.778;7.206;2023-08-21T12:01:21;32.40;54.80
13591;DHT22;6866;50.778;7.206;2023-08-21T12:03:47;32.30;55.80
13591;DHT22;6866;50.778;7.206;2023-08-21T12:06:20;32.10;56.10
13591;DHT22;6866;50.778;7.206;2023-08-21T12:08:46;32.00;55.40
13591;DHT22;6866;50.778;7.206;2023-08-21T12:11:12;32.00;55.70
13591;DHT22;6866;50.778;7.206;2023-08-21T12:13:38;32.20;55.40
13591;DHT22;6866;50.778;7.206;2023-08-21T12:16:04;32.50;54.80
13591;DHT22;6866;50.778;7.206;2023-08-21T12:18:29;32.50;55.30
13591;DHT22;6866;50.778;7.206;2023-08-21T12:20:55;32.50;55.50
13591;DHT22;6866;50.778;7.206;2023-08-21T12:23:21;32.50;56.00
13591;DHT22;6866;50.778;7.206;2023-08-21T12:25:46;32.50;54.70
13591;DHT22;6866;50.778;7.206;2023-08-21T12:28:12;32.20;55.30
13591;DHT22;6866;50.778;7.206;2023-08-21T12:30:37;32.00;55.10
13591;DHT22;6866;50.778;7.206;2023-08-21T12:33:03;32.10;55.00
13591;DHT22;6866;50.778;7.206;2023-08-21T12:35:29;32.30;55.40
13591;DHT22;6866;50.778;7.206;2023-08-21T12:37:57;32.50;54.80
13591;DHT22;6866;50.778;7.206;2023-08-21T12:40:22;32.60;54.00
13591;DHT22;6866;50.778;7.206;2023-08-21T12:42:48;32.30;53.90
13591;DHT22;6866;50.778;7.206;2023-08-21T12:45:14;32.30;53.70
13591;DHT22;6866;50.778;7.206;2023-08-21T12:47:39;32.00;55.00
13591;DHT22;6866;50.778;7.206;2023-08-21T12:50:06;32.00;54.80
13591;DHT22;6866;50.778;7.206;2023-08-21T12:52:31;32.00;54.90
13591;DHT22;6866;50.778;7.206;2023-08-21T12:54:57;31.80;54.40
13591;DHT22;6866;50.778;7.206;2023-08-21T12:57:23;31.80;55.40
13591;DHT22;6866;50.778;7.206;2023-08-21T12:59:48;31.90;54.70
13591;DHT22;6866;50.778;7.206;2023-08-21T13:02:14;31.90;54.00
13591;DHT22;6866;50.778;7.206;2023-08-21T13:04:39;32.00;53.90
13591;DHT22;6866;50.778;7.206;2023-08-21T13:07:05;31.90;52.30
13591;DHT22;6866;50.778;7.206;2023-08-21T13:09:30;32.00;53.90
13591;DHT22;6866;50.778;7.206;2023-08-21T13:11:56;32.00;55.20
13591;DHT22;6866;50.778;7.206;2023-08-21T13:14:21;31.90;53.80
13591;DHT22;6866;50.778;7.206;2023-08-21T13:16:47;31.60;53.80
13591;DHT22;6866;50.778;7.206;2023-08-21T13:19:12;31.20;54.90
13591;DHT22;6866;50.778;7.206;2023-08-21T13:21:38;31.10;54.90
13591;DHT22;6866;50.778;7.206;2023-08-21T13:24:04;30.80;55.40
13591;DHT22;6866;50.778;7.206;2023-08-21T13:26:30;30.70;56.00
13591;DHT22;6866;50.778;7.206;2023-08-21T13:28:56;30.70;56.90
13591;DHT22;6866;50.778;7.206;2023-08-21T13:31:22;30.80;55.10
13591;DHT22;6866;50.778;7.206;2023-08-21T13:33:48;30.90;55.90
13591;DHT22;6866;50.778;7.206;2023-08-21T13:36:15;30.70;55.50
13591;DHT22;6866;50.778;7.206;2023-08-21T13:38:40;30.60;55.60
13591;DHT22;6866;50.778;7.206;2023-08-21T13:41:07;30.60;56.60
13591;DHT22;6866;50.778;7.206;2023-08-21T13:43:33;30.60;57.00
13591;DHT22;6866;50.778;7.206;2023-08-21T13:46:00;30.30;56.40
13591;DHT22;6866;50.778;7.206;2023-08-21T13:48:25;30.40;56.20
13591;DHT22;6866;50.778;7.206;2023-08-21T13:50:51;30.30;55.80
13591;DHT22;6866;50.778;7.206;2023-08-21T13:53:16;30.60;56.00
13591;DHT22;6866;50.778;7.206;2023-08-21T13:55:42;30.60;56.60
13591;DHT22;6866;50.778;7.206;2023-08-21T13:58:08;30.50;56.50
13591;DHT22;6866;50.778;7.206;2023-08-21T14:00:33;30.60;56.00
13591;DHT22;6866;50.778;7.206;2023-08-21T14:02:59;30.70;55.10
13591;DHT22;6866;50.778;7.206;2023-08-21T14:05:24;30.90;54.50
13591;DHT22;6866;50.778;7.206;2023-08-21T14:07:51;31.00;53.30
13591;DHT22;6866;50.778;7.206;2023-08-21T14:10:17;31.00;52.70
13591;DHT22;6866;50.778;7.206;2023-08-21T14:12:42;31.10;52.50
13591;DHT22;6866;50.778;7.206;2023-08-21T14:15:09;30.60;53.00
13591;DHT22;6866;50.778;7.206;2023-08-21T14:17:35;30.30;54.20
13591;DHT22;6866;50.778;7.206;2023-08-21T14:20:00;30.20;55.10
13591;DHT22;6866;50.778;7.206;2023-08-21T14:22:26;30.30;54.70
13591;DHT22;6866;50.778;7.206;2023-08-21T14:24:51;30.50;54.00
13591;DHT22;6866;50.778;7.206;2023-08-21T14:27:17;30.50;55.60
13591;DHT22;6866;50.778;7.206;2023-08-21T14:29:43;30.60;53.50
13591;DHT22;6866;50.778;7.206;2023-08-21T14:32:09;30.60;54.10
13591;DHT22;6866;50.778;7.206;2023-08-21T14:34:35;30.70;53.90
13591;DHT22;6866;50.778;7.206;2023-08-21T14:37:01;30.90;53.40
13591;DHT22;6866;50.778;7.206;2023-08-21T14:39:27;30.90;52.20
13591;DHT22;6866;50.778;7.206;2023-08-21T14:41:57;30.70;52.50
13591;DHT22;6866;50.778;7.206;2023-08-21T14:44:23;31.00;53.20
13591;DHT22;6866;50.778;7.206;2023-08-21T14:46:49;31.00;52.80
13591;DHT22;6866;50.778;7.206;2023-08-21T14:49:15;30.70;52.60
13591;DHT22;6866;50.778;7.206;2023-08-21T14:51:41;30.80;53.30
13591;DHT22;6866;50.778;7.206;2023-08-21T14:54:06;30.90;51.40
13591;DHT22;6866;50.778;7.206;2023-08-21T14:56:32;30.90;52.60
13591;DHT22;6866;50.778;7.206;2023-08-21T14:58:58;30.80;52.50
13591;DHT22;6866;50.778;7.206;2023-08-21T15:01:24;30.70;51.90
13591;DHT22;6866;50.778;7.206;2023-08-21T15:03:50;30.70;52.60
13591;DHT22;6866;50.778;7.206;2023-08-21T15:06:15;30.70;52.90
13591;DHT22;6866;50.778;7.206;2023-08-21T15:08:42;30.50;52.70
13591;DHT22;6866;50.778;7.206;2023-08-21T15:11:08;30.10;53.30
13591;DHT22;6866;50.778;7.206;2023-08-21T15:13:37;30.10;53.60
13591;DHT22;6866;50.778;7.206;2023-08-21T15:16:03;30.20;53.10
13591;DHT22;6866;50.778;7.206;2023-08-21T15:18:29;30.50;52.80
13591;DHT22;6866;50.778;7.206;2023-08-21T15:20:54;30.60;53.40
13591;DHT22;6866;50.778;7.206;2023-08-21T15:23:20;30.60;52.10
13591;DHT22;6866;50.778;7.206;2023-08-21T15:25:45;30.40;52.80
13591;DHT22;6866;50.778;7.206;2023-08-21T15:28:11;30.20;52.80
13591;DHT22;6866;50.778;7.206;2023-08-21T15:30:36;30.10;53.20
13591;DHT22;6866;50.778;7.206;2023-08-21T15:33:03;30.00;52.90
13591;DHT22;6866;50.778;7.206;2023-08-21T15:35:28;30.00;52.20
13591;DHT22;6866;50.778;7.206;2023-08-21T15:37:54;30.10;53.00
13591;DHT22;6866;50.778;7.206;2023-08-21T15:40:19;29.90;53.00
13591;DHT22;6866;50.778;7.206;2023-08-21T15:42:45;29.90;54.20
13591;DHT22;6866;50.778;7.206;2023-08-21T15:45:11;29.80;55.30
13591;DHT22;6866;50.778;7.206;2023-08-21T15:47:36;29.80;52.50
13591;DHT22;6866;50.778;7.206;2023-08-21T15:50:02;30.00;53.50
13591;DHT22;6866;50.778;7.206;2023-08-21T15:52:27;29.90;52.80